Kezdőlap
METAR-TAF:

METAR-TAF

Repülőterek :

Clovis, Új-Mexikó, Amerikai Egyesült Államok

földrajzi szélesség: 34-26N, földrajzi hosszúság: 103-05W, magasság: 1284 m

Jelenlegi meteorológiai megfigyelések

A jelentés 11 perccel ezelõtt készült, 14:56 UTC
Déli szél 15 kt széllökések: 20 kt
Hőmérséklet 26°C
Páratartalom 65%
Légköri nyomás 1011 hPa
Látótávolság: 16.1 km
Derült ég

METAR: KCVN 181456Z AUTO 19015G20KT 10SM CLR 26/19 A2985 RMK AO2 SLP053 T02560189 50009

Idő: 09:07 (15:07 UTC)


TAF: hiányzik

Meteorológiai megfigyelések és előrejelzések több, mint 4000 repülőtéren (METAR és TAF jelentéseket).

A térképen piros és sárga pontok jelzik az elérhető meteorológiai állomásokat.

Mozgassa az egeret a pont fölött, hogy megjelenjen az állomás neve.

Azután kattintson az időjárási megfigyelések és előrejelzések megtekintéséhez.

A térkép megváltoztatása: kattintson a fekete keresztel jelölt zöld gombra ráközelítéshez, a vonallal jelölt zöld gombra távolításhoz, vagy a zöld nyilakra a szomszédos térképek eléréséhez.


METAR-TAF: